Observation data for Memphis on 11/08/2019      Previous  Date       Current Mesonet Observations  Soil Data  Daily Summary Page  Observations in Plain Language
KMES 080600Z 01003KT 03/M00 A3049 RMK A01 T00331002  RH  079%=      5-min Rain = 0
KMES 080605Z 01001KT 03/M00 A3049 RMK A01 T00331002  RH  079%=      5-min Rain = 0
KMES 080610Z 35002KT 03/M00 A3049 RMK A01 T00331003  RH  078%=      5-min Rain = 0
KMES 080615Z 36002KT 03/M00 A3049 RMK A01 T00341002  RH  078%=      5-min Rain = 0
KMES 080620Z 36002KT 03/M00 A3049 RMK A01 T00341003  RH  078%=      5-min Rain = 0
KMES 080625Z 00003KT 03/M00 A3048 RMK A01 T00341004  RH  077%=      5-min Rain = 0
KMES 080630Z 01002KT 03/M01 A3048 RMK A01 T00341005  RH  077%=      5-min Rain = 0
KMES 080635Z 01002KT 03/M00 A3048 RMK A01 T00341003  RH  077%=      5-min Rain = 0
KMES 080640Z 01003KT 03/M01 A3048 RMK A01 T00341005  RH  076%=      5-min Rain = 0
KMES 080645Z 01003KT 03/M01 A3048 RMK A01 T00341006  RH  076%=      5-min Rain = 0
KMES 080650Z 01004KT 03/M01 A3047 RMK A01 T00341007  RH  075%=      5-min Rain = 0
KMES 080655Z 02004KT 03/M01 A3047 RMK A01 T00341007  RH  076%=      5-min Rain = 0
KMES 080700Z 02004KT 03/M01 A3047 RMK A01 T00331007  RH  076%=      5-min Rain = 0
KMES 080705Z 02004KT 03/M01 A3047 RMK A01 T00331006  RH  076%=      5-min Rain = 0
KMES 080710Z 03003KT 03/M01 A3047 RMK A01 T00331006  RH  077%=      5-min Rain = 0
KMES 080715Z 02003KT 03/M01 A3047 RMK A01 T00331005  RH  077%=      5-min Rain = 0
KMES 080720Z 02003KT 03/M01 A3047 RMK A01 T00331006  RH  076%=      5-min Rain = 0
KMES 080725Z 01004KT 03/M01 A3047 RMK A01 T00331007  RH  076%=      5-min Rain = 0
KMES 080730Z 02003KT 03/M01 A3047 RMK A01 T00331007  RH  076%=      5-min Rain = 0
KMES 080735Z 03003KT 03/M01 A3047 RMK A01 T00331006  RH  076%=      5-min Rain = 0
KMES 080740Z 03003KT 03/M01 A3047 RMK A01 T00331006  RH  076%=      5-min Rain = 0
KMES 080745Z 04003KT 03/M01 A3046 RMK A01 T00331009  RH  075%=      5-min Rain = 0
KMES 080750Z 05003KT 03/M01 A3046 RMK A01 T00331011  RH  074%=      5-min Rain = 0
KMES 080755Z 05003KT 03/M01 A3046 RMK A01 T00331012  RH  073%=      5-min Rain = 0
KMES 080800Z 05003KT 03/M02 A3046 RMK A01 T00331017  RH  071%=      5-min Rain = 0
KMES 080805Z 05002KT 03/M02 A3046 RMK A01 T00331018  RH  070%=      5-min Rain = 0
KMES 080810Z 04002KT 03/M02 A3046 RMK A01 T00331016  RH  071%=      5-min Rain = 0
KMES 080815Z 03002KT 03/M02 A3046 RMK A01 T00331018  RH  070%=      5-min Rain = 0
KMES 080820Z 04002KT 03/M02 A3046 RMK A01 T00321018  RH  070%=      5-min Rain = 0
KMES 080825Z 05003KT 03/M02 A3046 RMK A01 T00321020  RH  069%=      5-min Rain = 0
KMES 080830Z 04002KT 03/M02 A3046 RMK A01 T00321021  RH  069%=      5-min Rain = 0
KMES 080835Z 04002KT 03/M02 A3045 RMK A01 T00321019  RH  070%=      5-min Rain = 0
KMES 080840Z 05001KT 03/M02 A3045 RMK A01 T00321020  RH  069%=      5-min Rain = 0
KMES 080845Z 04002KT 03/M02 A3045 RMK A01 T00321020  RH  069%=      5-min Rain = 0
KMES 080850Z 03001KT 03/M02 A3045 RMK A01 T00311021  RH  069%=      5-min Rain = 0
KMES 080855Z 01001KT 03/M02 A3045 RMK A01 T00311020  RH  070%=      5-min Rain = 0
KMES 080900Z 35001KT 03/M02 A3045 RMK A01 T00301020  RH  070%=      5-min Rain = 0
KMES 080905Z 03002KT 03/M02 A3045 RMK A01 T00291018  RH  072%=      5-min Rain = 0
KMES 080910Z 02002KT 03/M02 A3045 RMK A01 T00281015  RH  074%=      5-min Rain = 0
KMES 080915Z 02003KT 03/M01 A3045 RMK A01 T00281014  RH  075%=      5-min Rain = 0
KMES 080920Z 01002KT 03/M01 A3045 RMK A01 T00281012  RH  076%=      5-min Rain = 0
KMES 080925Z 02002KT 03/M01 A3045 RMK A01 T00281010  RH  077%=      5-min Rain = 0
KMES 080930Z 02002KT 03/M01 A3045 RMK A01 T00281012  RH  076%=      5-min Rain = 0
KMES 080935Z 02002KT 03/M01 A3045 RMK A01 T00291013  RH  075%=      5-min Rain = 0
KMES 080940Z 04002KT 03/M01 A3045 RMK A01 T00291014  RH  074%=      5-min Rain = 0
KMES 080945Z 06001KT 03/M01 A3045 RMK A01 T00301014  RH  074%=      5-min Rain = 0
KMES 080950Z 05002KT 03/M01 A3044 RMK A01 T00301012  RH  074%=      5-min Rain = 0
KMES 080955Z 05001KT 03/M01 A3045 RMK A01 T00301013  RH  074%=      5-min Rain = 0
KMES 081000Z 07001KT 03/M01 A3045 RMK A01 T00301014  RH  074%=      5-min Rain = 0
KMES 081005Z 07001KT 03/M02 A3045 RMK A01 T00291016  RH  073%=      5-min Rain = 0
KMES 081010Z 06000KT 03/M02 A3045 RMK A01 T00291018  RH  072%=      5-min Rain = 0
KMES 081015Z 03001KT 03/M02 A3045 RMK A01 T00291021  RH  070%=      5-min Rain = 0
KMES 081020Z 00001KT 03/M02 A3045 RMK A01 T00301022  RH  069%=      5-min Rain = 0
KMES 081025Z 01001KT 03/M02 A3044 RMK A01 T00301024  RH  068%=      5-min Rain = 0
KMES 081030Z 03001KT 03/M03 A3044 RMK A01 T00301025  RH  068%=      5-min Rain = 0
KMES 081035Z 04001KT 03/M03 A3044 RMK A01 T00301026  RH  067%=      5-min Rain = 0
KMES 081040Z 07001KT 03/M03 A3044 RMK A01 T00301027  RH  066%=      5-min Rain = 0
KMES 081045Z 05001KT 03/M03 A3044 RMK A01 T00311028  RH  066%=      5-min Rain = 0
KMES 081050Z 08001KT 03/M03 A3044 RMK A01 T00311030  RH  065%=      5-min Rain = 0
KMES 081055Z 10001KT 03/M03 A3044 RMK A01 T00311029  RH  065%=      5-min Rain = 0
KMES 081100Z 08001KT 03/M03 A3044 RMK A01 T00311031  RH  064%=      5-min Rain = 0
KMES 081105Z 08001KT 03/M03 A3044 RMK A01 T00311033  RH  063%=      5-min Rain = 0
KMES 081110Z 09001KT 03/M04 A3044 RMK A01 T00311035  RH  062%=      5-min Rain = 0
KMES 081115Z 07001KT 03/M03 A3044 RMK A01 T00311034  RH  063%=      5-min Rain = 0
KMES 081120Z 07000KT 03/M03 A3044 RMK A01 T00311034  RH  063%=      5-min Rain = 0
KMES 081125Z 07001KT 03/M03 A3044 RMK A01 T00311032  RH  064%=      5-min Rain = 0
KMES 081130Z 07001KT 03/M03 A3044 RMK A01 T00311031  RH  064%=      5-min Rain = 0
KMES 081135Z 09001KT 03/M03 A3044 RMK A01 T00311033  RH  063%=      5-min Rain = 0
KMES 081140Z 09001KT 03/M04 A3044 RMK A01 T00311035  RH  062%=      5-min Rain = 0
KMES 081145Z 11001KT 03/M03 A3044 RMK A01 T00311034  RH  063%=      5-min Rain = 0
KMES 081150Z 11002KT 03/M03 A3044 RMK A01 T00311032  RH  064%=      5-min Rain = 0
KMES 081155Z 13003KT 03/M03 A3043 RMK A01 T00321028  RH  065%=      5-min Rain = 0
KMES 081200Z 14003KT 03/M03 A3043 RMK A01 T00321026  RH  066%=      5-min Rain = 0
KMES 081205Z 13003KT 03/M02 A3043 RMK A01 T00321024  RH  067%=      5-min Rain = 0
KMES 081210Z 12002KT 03/M03 A3043 RMK A01 T00311026  RH  067%=      5-min Rain = 0
KMES 081215Z 11002KT 03/M04 A3043 RMK A01 T00301035  RH  062%=      5-min Rain = 0
KMES 081220Z 10002KT 03/M04 A3043 RMK A01 T00311040  RH  060%=      5-min Rain = 0
KMES 081225Z 11001KT 03/M04 A3043 RMK A01 T00311037  RH  061%=      5-min Rain = 0
KMES 081230Z 10001KT 03/M04 A3043 RMK A01 T00311035  RH  062%=      5-min Rain = 0
KMES 081235Z 13001KT 03/M04 A3042 RMK A01 T00311036  RH  062%=      5-min Rain = 0
KMES 081240Z 14001KT 03/M03 A3043 RMK A01 T00311034  RH  063%=      5-min Rain = 0
KMES 081245Z 13002KT 03/M03 A3043 RMK A01 T00311033  RH  063%=      5-min Rain = 0
KMES 081250Z 10002KT 03/M04 A3043 RMK A01 T00301042  RH  059%=      5-min Rain = 0
KMES 081255Z 13002KT 03/M04 A3043 RMK A01 T00311040  RH  060%=      5-min Rain = 0
KMES 081300Z 11002KT 03/M04 A3043 RMK A01 T00311037  RH  061%=      5-min Rain = 0
KMES 081305Z 09001KT 03/M04 A3043 RMK A01 T00311040  RH  060%=      5-min Rain = 0
KMES 081310Z 09001KT 03/M04 A3043 RMK A01 T00311041  RH  060%=      5-min Rain = 0
KMES 081315Z 11002KT 03/M04 A3043 RMK A01 T00301044  RH  058%=      5-min Rain = 0
KMES 081320Z 10002KT 03/M05 A3043 RMK A01 T00311047  RH  057%=      5-min Rain = 0
KMES 081325Z 10002KT 03/M05 A3043 RMK A01 T00301051  RH  055%=      5-min Rain = 0
KMES 081330Z 10002KT 03/M06 A3043 RMK A01 T00301060  RH  052%=      5-min Rain = 0
KMES 081335Z 10002KT 03/M06 A3043 RMK A01 T00301061  RH  051%=      5-min Rain = 0
KMES 081340Z 09002KT 03/M06 A3044 RMK A01 T00301064  RH  050%=      5-min Rain = 0
KMES 081345Z 10001KT 03/M06 A3044 RMK A01 T00311062  RH  050%=      5-min Rain = 0
KMES 081350Z 11002KT 03/M07 A3044 RMK A01 T00311067  RH  049%=      5-min Rain = 0
KMES 081355Z 11003KT 03/M07 A3044 RMK A01 T00321066  RH  049%=      5-min Rain = 0
KMES 081400Z 08003KT 03/M07 A3045 RMK A01 T00321072  RH  047%=      5-min Rain = 0
KMES 081405Z 07002KT 03/M07 A3045 RMK A01 T00321070  RH  047%=      5-min Rain = 0
KMES 081410Z 09002KT 03/M07 A3045 RMK A01 T00321069  RH  047%=      5-min Rain = 0
KMES 081415Z 11002KT 03/M07 A3045 RMK A01 T00321066  RH  049%=      5-min Rain = 0
KMES 081420Z 10002KT 03/M06 A3045 RMK A01 T00331061  RH  050%=      5-min Rain = 0
KMES 081425Z 10002KT 03/M06 A3045 RMK A01 T00331056  RH  052%=      5-min Rain = 0
KMES 081430Z 12003KT 03/M05 A3045 RMK A01 T00331054  RH  053%=      5-min Rain = 0
KMES 081435Z 12003KT 03/M05 A3045 RMK A01 T00341051  RH  054%=      5-min Rain = 0
KMES 081440Z 12003KT 03/M05 A3045 RMK A01 T00341052  RH  053%=      5-min Rain = 0
KMES 081445Z 13003KT 03/M06 A3046 RMK A01 T00341056  RH  052%=      5-min Rain = 0
KMES 081450Z 15004KT 04/M06 A3046 RMK A01 T00351057  RH  051%=      5-min Rain = 0
KMES 081455Z 15004KT 04/M06 A3045 RMK A01 T00351060  RH  050%=      5-min Rain = 0
KMES 081500Z 15005KT 04/M07 A3045 RMK A01 T00351068  RH  047%=      5-min Rain = 0
KMES 081505Z 14006KT 04/M07 A3045 RMK A01 T00361067  RH  047%=      5-min Rain = 0
KMES 081510Z 14005KT 04/M06 A3045 RMK A01 T00361064  RH  048%=      5-min Rain = 0
KMES 081515Z 15005KT 04/M06 A3044 RMK A01 T00371063  RH  048%=      5-min Rain = 0
KMES 081520Z 15006KT 04/M06 A3044 RMK A01 T00371060  RH  049%=      5-min Rain = 0
KMES 081525Z 14006KT 04/M06 A3044 RMK A01 T00381057  RH  050%=      5-min Rain = 0
KMES 081530Z 14007KT 04/M06 A3044 RMK A01 T00391059  RH  049%=      5-min Rain = 0
KMES 081535Z 14006KT 04/M06 A3044 RMK A01 T00391061  RH  048%=      5-min Rain = 0
KMES 081540Z 14005KT 04/M07 A3044 RMK A01 T00391066  RH  046%=      5-min Rain = 0
KMES 081545Z 14004KT 04/M07 A3045 RMK A01 T00401069  RH  045%=      5-min Rain = 0
KMES 081550Z 14004KT 04/M07 A3045 RMK A01 T00401072  RH  044%=      5-min Rain = 0
KMES 081555Z 15004KT 04/M07 A3044 RMK A01 T00421070  RH  044%=      5-min Rain = 0
KMES 081600Z 15004KT 04/M07 A3044 RMK A01 T00431071  RH  043%=      5-min Rain = 0
KMES 081605Z 15004KT 05/M07 A3044 RMK A01 T00451068  RH  044%=      5-min Rain = 0
KMES 081610Z 15003KT 05/M07 A3043 RMK A01 T00461066  RH  044%=      5-min Rain = 0
KMES 081615Z 16004KT 05/M07 A3043 RMK A01 T00501066  RH  043%=      5-min Rain = 0
KMES 081620Z 18004KT 05/M07 A3042 RMK A01 T00531068  RH  041%=      5-min Rain = 0
KMES 081625Z 16004KT 05/M07 A3042 RMK A01 T00531071  RH  040%=      5-min Rain = 0
KMES 081630Z 18004KT 05/M08 A3042 RMK A01 T00521076  RH  039%=      5-min Rain = 0
KMES 081635Z 15005KT 05/M07 A3042 RMK A01 T00531074  RH  040%=      5-min Rain = 0
KMES 081640Z 16004KT 06/M07 A3042 RMK A01 T00551069  RH  040%=      5-min Rain = 0
KMES 081645Z 16005KT 06/M07 A3042 RMK A01 T00561065  RH  042%=      5-min Rain = 0
KMES 081650Z 16004KT 06/M06 A3042 RMK A01 T00551064  RH  042%=      5-min Rain = 0
KMES 081655Z 21004KT 06/M06 A3042 RMK A01 T00571060  RH  043%=      5-min Rain = 0
KMES 081700Z 22004KT 06/M07 A3042 RMK A01 T00571068  RH  040%=      5-min Rain = 0
KMES 081705Z 20004KT 06/M07 A3042 RMK A01 T00571070  RH  040%=      5-min Rain = 0
KMES 081710Z 20005KT 06/M07 A3042 RMK A01 T00571070  RH  039%=      5-min Rain = 0
KMES 081715Z 22005KT 06/M07 A3042 RMK A01 T00571067  RH  040%=      5-min Rain = 0
KMES 081720Z 22005KT 06/M06 A3042 RMK A01 T00571063  RH  042%=      5-min Rain = 0
KMES 081725Z 23003KT 06/M07 A3041 RMK A01 T00571066  RH  041%=      5-min Rain = 0
KMES 081730Z 19004KT 06/M06 A3041 RMK A01 T00591058  RH  043%=      5-min Rain = 0
KMES 081735Z 23005KT 06/M05 A3041 RMK A01 T00611054  RH  044%=      5-min Rain = 0
KMES 081740Z 22004KT 06/M06 A304 RMK A01 T00611055  RH  043%=      5-min Rain = 0
KMES 081745Z 22004KT 06/M05 A304 RMK A01 T00611052  RH  044%=      5-min Rain = 0
KMES 081750Z 17004KT 06/M05 A304 RMK A01 T00641051  RH  044%=      5-min Rain = 0
KMES 081755Z 20003KT 07/M05 A304 RMK A01 T00651051  RH  043%=      5-min Rain = 0
KMES 081800Z 19002KT 07/M05 A3039 RMK A01 T00691045  RH  044%=      5-min Rain = 0
KMES 081805Z 15002KT 08/M04 A3039 RMK A01 T00751044  RH  043%=      5-min Rain = 0
KMES 081810Z 19003KT 08/M04 A3038 RMK A01 T00771041  RH  043%=      5-min Rain = 0
KMES 081815Z 17002KT 08/M04 A3038 RMK A01 T00801041  RH  042%=      5-min Rain = 0
KMES 081820Z 28001KT 08/M05 A3038 RMK A01 T00791045  RH  041%=      5-min Rain = 0
KMES 081825Z 17003KT 08/M04 A3038 RMK A01 T00781039  RH  044%=      5-min Rain = 0
KMES 081830Z 20002KT 08/M04 A3038 RMK A01 T00761038  RH  044%=      5-min Rain = 0
KMES 081835Z 19002KT 08/M04 A3038 RMK A01 T00751039  RH  044%=      5-min Rain = 0
KMES 081840Z 20003KT 08/M03 A3037 RMK A01 T00791031  RH  046%=      5-min Rain = 0
KMES 081845Z 19003KT 08/M03 A3036 RMK A01 T00811031  RH  045%=      5-min Rain = 0
KMES 081850Z 20004KT 08/M03 A3036 RMK A01 T00821027  RH  047%=      5-min Rain = 0
KMES 081855Z 19005KT 08/M02 A3035 RMK A01 T00841023  RH  047%=      5-min Rain = 0
KMES 081900Z 19004KT 09/M02 A3035 RMK A01 T00851021  RH  048%=      5-min Rain = 0
KMES 081905Z 21004KT 09/M02 A3035 RMK A01 T00861016  RH  049%=      5-min Rain = 0
KMES 081910Z 18005KT 09/M02 A3034 RMK A01 T00911015  RH  048%=      5-min Rain = 0
KMES 081915Z 21004KT 09/M01 A3034 RMK A01 T00911011  RH  049%=      5-min Rain = 0
KMES 081920Z 21006KT 09/M01 A3034 RMK A01 T00921008  RH  050%=      5-min Rain = 0
KMES 081925Z 23006KT 09/M01 A3034 RMK A01 T00911009  RH  050%=      5-min Rain = 0
KMES 081930Z 19006KT 09/M01 A3034 RMK A01 T00931007  RH  050%=      5-min Rain = 0
KMES 081935Z 20004KT 09/M01 A3033 RMK A01 T00931007  RH  050%=      5-min Rain = 0
KMES 081940Z 20005KT 10/M00 A3033 RMK A01 T00951004  RH  050%=      5-min Rain = 0
KMES 081945Z 21006KT 10/M00 A3033 RMK A01 T00961003  RH  051%=      5-min Rain = 0
KMES 081950Z 19004KT 10/M01 A3033 RMK A01 T00961005  RH  050%=      5-min Rain = 0
KMES 081955Z 21005KT 10/00 A3032 RMK A01 T00990001  RH  051%=      5-min Rain = 0
KMES 082000Z 25007KT 10/00 A3032 RMK A01 T01020004  RH  051%=      5-min Rain = 0
KMES 082005Z 24006KT 10/01 A3032 RMK A01 T01040005  RH  051%=      5-min Rain = 0
KMES 082010Z 22006KT 11/01 A3031 RMK A01 T01090009  RH  051%=      5-min Rain = 0
KMES 082015Z 22005KT 11/01 A3031 RMK A01 T01100008  RH  050%=      5-min Rain = 0
KMES 082020Z 22007KT 11/01 A3031 RMK A01 T01120012  RH  051%=      5-min Rain = 0
KMES 082025Z 21006KT 11/01 A3031 RMK A01 T01130011  RH  050%=      5-min Rain = 0
KMES 082030Z 19008G14KT 11/01 A303 RMK A01 T01120011  RH  050%=      5-min Rain = 0
KMES 082035Z 18006G11KT 11/01 A303 RMK A01 T01130013  RH  051%=      5-min Rain = 0
KMES 082040Z 19007KT 11/01 A303 RMK A01 T01140014  RH  051%=      5-min Rain = 0
KMES 082045Z 19006KT 11/01 A303 RMK A01 T01140014  RH  051%=      5-min Rain = 0
KMES 082050Z 20007KT 12/02 A3029 RMK A01 T01160017  RH  051%=      5-min Rain = 0
KMES 082055Z 21007KT 12/02 A3029 RMK A01 T01180018  RH  051%=      5-min Rain = 0
KMES 082100Z 22007KT 12/02 A3029 RMK A01 T01160019  RH  052%=      5-min Rain = 0
KMES 082105Z 22006KT 12/02 A3029 RMK A01 T01170020  RH  052%=      5-min Rain = 0
KMES 082110Z 21007KT 12/03 A3029 RMK A01 T01190025  RH  053%=      5-min Rain = 0
KMES 082115Z 21007G12KT 12/02 A3028 RMK A01 T01210024  RH  052%=      5-min Rain = 0
KMES 082120Z 22008KT 12/03 A3028 RMK A01 T01170026  RH  054%=      5-min Rain = 0
KMES 082125Z 22006KT 12/03 A3028 RMK A01 T01210027  RH  054%=      5-min Rain = 0
KMES 082130Z 21007KT 12/03 A3027 RMK A01 T01220027  RH  053%=      5-min Rain = 0
KMES 082135Z 19006KT 12/03 A3027 RMK A01 T01230029  RH  053%=      5-min Rain = 0
KMES 082140Z 21006KT 12/03 A3027 RMK A01 T01240030  RH  053%=      5-min Rain = 0
KMES 082145Z 20005KT 13/03 A3027 RMK A01 T01260030  RH  053%=      5-min Rain = 0
KMES 082150Z 19006KT 13/03 A3027 RMK A01 T01250033  RH  054%=      5-min Rain = 0
KMES 082155Z 18006KT 13/04 A3027 RMK A01 T01250035  RH  055%=      5-min Rain = 0
KMES 082200Z 21007KT 12/04 A3027 RMK A01 T01240035  RH  055%=      5-min Rain = 0
KMES 082205Z 19007KT 12/04 A3026 RMK A01 T01220036  RH  057%=      5-min Rain = 0
KMES 082210Z 20006KT 12/04 A3026 RMK A01 T01240036  RH  056%=      5-min Rain = 0
KMES 082215Z 18005KT 12/04 A3026 RMK A01 T01240038  RH  057%=      5-min Rain = 0
KMES 082220Z 20006KT 13/04 A3027 RMK A01 T01250039  RH  057%=      5-min Rain = 0
KMES 082225Z 21006KT 13/04 A3026 RMK A01 T01260041  RH  057%=      5-min Rain = 0
KMES 082230Z 18005KT 13/04 A3026 RMK A01 T01260038  RH  056%=      5-min Rain = 0
KMES 082235Z 19006KT 13/04 A3026 RMK A01 T01260039  RH  057%=      5-min Rain = 0
KMES 082240Z 18005KT 13/04 A3026 RMK A01 T01250038  RH  056%=      5-min Rain = 0
KMES 082245Z 18006KT 13/04 A3026 RMK A01 T01250040  RH  057%=      5-min Rain = 0
KMES 082250Z 20004KT 13/04 A3026 RMK A01 T01250042  RH  058%=      5-min Rain = 0
KMES 082255Z 20005KT 12/04 A3026 RMK A01 T01240042  RH  058%=      5-min Rain = 0
KMES 082300Z 16004KT 12/04 A3026 RMK A01 T01240041  RH  058%=      5-min Rain = 0
KMES 082305Z 16006KT 12/04 A3026 RMK A01 T01220040  RH  058%=      5-min Rain = 0
KMES 082310Z 16005KT 12/04 A3026 RMK A01 T01200039  RH  059%=      5-min Rain = 0
KMES 082315Z 16004KT 12/04 A3026 RMK A01 T01180039  RH  060%=      5-min Rain = 0
KMES 082320Z 16003KT 12/04 A3027 RMK A01 T01170039  RH  060%=      5-min Rain = 0
KMES 082325Z 16003KT 11/04 A3027 RMK A01 T01140039  RH  061%=      5-min Rain = 0
KMES 082330Z 16003KT 11/04 A3027 RMK A01 T01120039  RH  062%=      5-min Rain = 0
KMES 082335Z 15005KT 11/04 A3026 RMK A01 T01110039  RH  063%=      5-min Rain = 0
KMES 082340Z 15004KT 11/04 A3026 RMK A01 T01090040  RH  063%=      5-min Rain = 0
KMES 082345Z 15005KT 11/04 A3026 RMK A01 T01070039  RH  064%=      5-min Rain = 0
KMES 082350Z 15005KT 11/04 A3026 RMK A01 T01050040  RH  065%=      5-min Rain = 0
KMES 082355Z 15004KT 10/04 A3026 RMK A01 T01030040  RH  066%=      5-min Rain = 0
KMES 090000Z 15004KT 10/04 A3026 RMK A01 T01010039  RH  067%=      5-min Rain = 0
KMES 090005Z 14003KT 10/04 A3026 RMK A01 T00990037  RH  067%=      5-min Rain = 0
KMES 090010Z 14004KT 10/04 A3026 RMK A01 T00950036  RH  068%=      5-min Rain = 0
KMES 090015Z 13005KT 09/03 A3026 RMK A01 T00910034  RH  069%=      5-min Rain = 0
KMES 090020Z 14005KT 09/03 A3026 RMK A01 T00870032  RH  069%=      5-min Rain = 0
KMES 090025Z 14005KT 09/03 A3026 RMK A01 T00860031  RH  069%=      5-min Rain = 0
KMES 090030Z 14005KT 09/03 A3026 RMK A01 T00850031  RH  070%=      5-min Rain = 0
KMES 090035Z 15004KT 08/03 A3026 RMK A01 T00840030  RH  070%=      5-min Rain = 0
KMES 090040Z 16004KT 08/03 A3026 RMK A01 T00830030  RH  070%=      5-min Rain = 0
KMES 090045Z 16004KT 08/03 A3026 RMK A01 T00820029  RH  070%=      5-min Rain = 0
KMES 090050Z 17003KT 08/03 A3027 RMK A01 T00810029  RH  071%=      5-min Rain = 0
KMES 090055Z 17004KT 08/03 A3027 RMK A01 T00800028  RH  071%=      5-min Rain = 0
KMES 090100Z 16004KT 08/03 A3027 RMK A01 T00790028  RH  071%=      5-min Rain = 0
KMES 090105Z 16005KT 08/03 A3027 RMK A01 T00770027  RH  072%=      5-min Rain = 0
KMES 090110Z 17004KT 08/03 A3027 RMK A01 T00750026  RH  072%=      5-min Rain = 0
KMES 090115Z 17004KT 07/03 A3027 RMK A01 T00730026  RH  073%=      5-min Rain = 0
KMES 090120Z 18003KT 07/03 A3027 RMK A01 T00720026  RH  074%=      5-min Rain = 0
KMES 090125Z 17004KT 07/03 A3027 RMK A01 T00720026  RH  074%=      5-min Rain = 0
KMES 090130Z 17003KT 07/03 A3027 RMK A01 T00700025  RH  074%=      5-min Rain = 0
KMES 090135Z 16002KT 07/02 A3027 RMK A01 T00690024  RH  075%=      5-min Rain = 0
KMES 090140Z 14002KT 07/02 A3027 RMK A01 T00670024  RH  075%=      5-min Rain = 0
KMES 090145Z 13001KT 07/02 A3028 RMK A01 T00650023  RH  076%=      5-min Rain = 0
KMES 090150Z 14001KT 06/02 A3027 RMK A01 T00630022  RH  076%=      5-min Rain = 0
KMES 090155Z 13002KT 06/02 A3027 RMK A01 T00620022  RH  077%=      5-min Rain = 0
KMES 090200Z 13001KT 06/02 A3027 RMK A01 T00600021  RH  077%=      5-min Rain = 0
KMES 090205Z 13000KT 06/02 A3027 RMK A01 T00570019  RH  078%=      5-min Rain = 0
KMES 090210Z 34001KT 05/02 A3027 RMK A01 T00520017  RH  080%=      5-min Rain = 0
KMES 090215Z 02001KT 05/02 A3027 RMK A01 T00460015  RH  081%=      5-min Rain = 0
KMES 090220Z 02002KT 04/02 A3027 RMK A01 T00440015  RH  083%=      5-min Rain = 0
KMES 090225Z 02002KT 04/01 A3027 RMK A01 T00420013  RH  083%=      5-min Rain = 0
KMES 090230Z 03002KT 04/01 A3027 RMK A01 T00380011  RH  084%=      5-min Rain = 0
KMES 090235Z 04001KT 04/01 A3027 RMK A01 T00370012  RH  085%=      5-min Rain = 0
KMES 090240Z 02002KT 04/01 A3027 RMK A01 T00370013  RH  086%=      5-min Rain = 0
KMES 090245Z 36002KT 04/01 A3028 RMK A01 T00380014  RH  086%=      5-min Rain = 0
KMES 090250Z 35003KT 04/01 A3028 RMK A01 T00360013  RH  086%=      5-min Rain = 0
KMES 090255Z 35003KT 03/01 A3028 RMK A01 T00340011  RH  086%=      5-min Rain = 0
KMES 090300Z 00004KT 03/01 A3028 RMK A01 T00310010  RH  087%=      5-min Rain = 0
KMES 090305Z 01004KT 03/01 A3028 RMK A01 T00300011  RH  088%=      5-min Rain = 0
KMES 090310Z 01003KT 03/01 A3028 RMK A01 T00300011  RH  088%=      5-min Rain = 0
KMES 090315Z 01002KT 03/01 A3028 RMK A01 T00300011  RH  089%=      5-min Rain = 0
KMES 090320Z 35002KT 03/01 A3028 RMK A01 T00310013  RH  089%=      5-min Rain = 0
KMES 090325Z 00002KT 03/01 A3028 RMK A01 T00310012  RH  089%=      5-min Rain = 0
KMES 090330Z 35001KT 03/01 A3028 RMK A01 T00300011  RH  089%=      5-min Rain = 0
KMES 090335Z 03000KT 03/01 A3028 RMK A01 T00290011  RH  089%=      5-min Rain = 0
KMES 090340Z 00000KT 03/01 A3028 RMK A01 T00270008  RH  089%=      5-min Rain = 0
KMES 090345Z 00000KT 02/01 A3028 RMK A01 T00240006  RH  089%=      5-min Rain = 0
KMES 090350Z 10001KT 02/01 A3028 RMK A01 T00240006  RH  089%=      5-min Rain = 0
KMES 090355Z 10000KT 02/01 A3028 RMK A01 T00230006  RH  089%=      5-min Rain = 0
KMES 090400Z 33001KT 02/00 A3028 RMK A01 T00200003  RH  090%=      5-min Rain = 0
KMES 090405Z 32002KT 02/00 A3028 RMK A01 T00190004  RH  090%=      5-min Rain = 0
KMES 090410Z 33002KT 02/00 A3028 RMK A01 T00190004  RH  091%=      5-min Rain = 0
KMES 090415Z 34002KT 02/00 A3028 RMK A01 T00180002  RH  091%=      5-min Rain = 0
KMES 090420Z 33002KT 02/00 A3028 RMK A01 T00180004  RH  091%=      5-min Rain = 0
KMES 090425Z 33003KT 02/01 A3028 RMK A01 T00200006  RH  092%=      5-min Rain = 0
KMES 090430Z 32002KT 02/01 A3028 RMK A01 T00210007  RH  092%=      5-min Rain = 0
KMES 090435Z 31002KT 02/01 A3028 RMK A01 T00200005  RH  091%=      5-min Rain = 0
KMES 090440Z 31002KT 02/00 A3028 RMK A01 T00180004  RH  091%=      5-min Rain = 0
KMES 090445Z 30002KT 02/00 A3028 RMK A01 T00180004  RH  091%=      5-min Rain = 0
KMES 090450Z 32002KT 02/00 A3028 RMK A01 T00160002  RH  091%=      5-min Rain = 0
KMES 090455Z 33001KT 02/00 A3027 RMK A01 T00150001  RH  091%=      5-min Rain = 0
KMES 090500Z 33002KT 01/M00 A3027 RMK A01 T00131001  RH  091%=      5-min Rain = 0
KMES 090505Z 32003KT 01/M00 A3027 RMK A01 T00111003  RH  092%=      5-min Rain = 0
KMES 090510Z 32002KT 01/M00 A3027 RMK A01 T00111002  RH  092%=      5-min Rain = 0
KMES 090515Z 30002KT 01/M00 A3027 RMK A01 T00121001  RH  092%=      5-min Rain = 0
KMES 090520Z 31002KT 01/M00 A3026 RMK A01 T00111002  RH  092%=      5-min Rain = 0
KMES 090525Z 31002KT 01/M00 A3026 RMK A01 T00091004  RH  092%=      5-min Rain = 0
KMES 090530Z 29001KT 01/M01 A3026 RMK A01 T00071006  RH  092%=      5-min Rain = 0
KMES 090535Z 27002KT 01/M00 A3026 RMK A01 T00081004  RH  093%=      5-min Rain = 0
KMES 090540Z 25002KT 01/M00 A3026 RMK A01 T00081004  RH  093%=      5-min Rain = 0
KMES 090545Z 24002KT 01/M00 A3026 RMK A01 T00101001  RH  094%=      5-min Rain = 0
KMES 090550Z 21002KT 01/00 A3026 RMK A01 T00140003  RH  093%=      5-min Rain = 0
KMES 090555Z 20004KT 02/00 A3026 RMK A01 T00150003  RH  093%=      5-min Rain = 0

Page generated in 0.0092 seconds.